createdAt,value
2019-02-21T00:04:19.929Z,23.23
2019-02-21T00:09:25.495Z,29.57
2019-02-21T00:14:30.944Z,24.13
2019-02-21T00:19:36.490Z,25.90
2019-02-21T00:24:41.573Z,26.23
2019-02-21T00:29:47.337Z,25.73
2019-02-21T00:34:52.785Z,30.27
2019-02-21T00:39:58.253Z,25.70
2019-02-21T00:45:03.346Z,24.40
2019-02-21T00:50:08.516Z,24.90
2019-02-21T00:55:13.991Z,28.33
2019-02-21T01:00:19.180Z,28.13
2019-02-21T01:05:24.344Z,27.43
2019-02-21T01:10:30.536Z,26.27
2019-02-21T01:15:35.719Z,25.87
2019-02-21T01:20:41.189Z,26.13
2019-02-21T01:25:46.629Z,24.67
2019-02-21T01:30:56.946Z,25.63
2019-02-21T01:35:59.559Z,28.80
2019-02-21T01:41:05.079Z,27.30
2019-02-21T01:46:10.566Z,25.47
2019-02-21T01:51:15.655Z,24.20
2019-02-21T01:56:20.685Z,25.87
2019-02-21T02:01:25.890Z,25.90
2019-02-21T02:06:30.962Z,24.47
2019-02-21T02:11:36.708Z,26.83
2019-02-21T02:16:41.866Z,25.17
2019-02-21T02:21:47.160Z,26.70
2019-02-21T02:26:52.162Z,28.30
2019-02-21T02:31:57.654Z,24.93
2019-02-21T02:37:02.653Z,25.97
2019-02-21T02:42:08.191Z,26.23
2019-02-21T02:47:15.141Z,23.37
2019-02-21T02:52:20.551Z,21.27
2019-02-21T02:57:26.114Z,25.13
2019-02-21T03:02:31.266Z,23.60
2019-02-21T03:07:36.425Z,25.47
2019-02-21T03:12:41.583Z,22.70
2019-02-21T03:17:46.759Z,23.50
2019-02-21T03:22:51.785Z,24.40
2019-02-21T03:27:56.951Z,26.43
2019-02-21T03:33:02.926Z,24.90
2019-02-21T03:38:08.225Z,25.70
2019-02-21T03:43:13.403Z,24.57
2019-02-21T03:48:19.814Z,25.17
2019-02-21T03:53:24.895Z,26.70
2019-02-21T03:58:30.020Z,25.37
2019-02-21T04:03:35.563Z,23.13
2019-02-21T04:08:40.710Z,23.20
2019-02-21T04:13:45.980Z,22.77
2019-02-21T04:18:51.121Z,24.20
2019-02-21T04:23:57.073Z,26.87
2019-02-21T04:29:02.454Z,27.27
2019-02-21T04:34:07.456Z,25.23
2019-02-21T04:39:12.752Z,23.83
2019-02-21T04:44:17.752Z,24.60
2019-02-21T04:49:23.243Z,27.03
2019-02-21T04:54:29.360Z,22.37
2019-02-21T04:59:34.436Z,23.77
2019-02-21T05:04:42.005Z,26.40
2019-02-21T05:09:57.657Z,25.27
2019-02-21T05:14:54.932Z,25.80
2019-02-21T05:20:00.458Z,26.23
2019-02-21T05:25:05.923Z,24.67
2019-02-21T05:30:14.682Z,24.50
2019-02-21T05:35:37.244Z,24.30
2019-02-21T05:41:07.657Z,24.87
2019-02-21T05:46:37.510Z,23.23
2019-02-21T05:51:49.968Z,27.10
2019-02-21T05:57:04.370Z,23.40
2019-02-21T06:02:53.087Z,26.83
2019-02-21T06:08:01.173Z,25.40
2019-02-21T06:13:27.488Z,27.73
2019-02-21T06:18:49.843Z,25.37
2019-02-21T06:24:04.418Z,27.20
2019-02-21T06:29:28.501Z,26.37
2019-02-21T06:34:33.923Z,28.97
2019-02-21T06:39:39.029Z,22.83
2019-02-21T06:44:44.539Z,27.50
2019-02-21T06:49:49.918Z,30.97
2019-02-21T06:54:55.343Z,37.17
2019-02-21T07:00:00.443Z,31.73
2019-02-21T07:05:05.959Z,27.67
2019-02-21T07:10:11.301Z,30.00
2019-02-21T07:15:17.119Z,29.23
2019-02-21T07:20:22.182Z,29.03
2019-02-21T07:25:55.090Z,27.73
2019-02-21T07:31:00.098Z,27.47
2019-02-21T07:36:05.683Z,29.93
2019-02-21T07:41:11.000Z,31.70
2019-02-21T07:46:16.764Z,32.67
2019-02-21T07:51:22.051Z,25.40
2019-02-21T07:56:27.234Z,30.00
2019-02-21T08:01:32.323Z,29.97
2019-02-21T08:06:37.480Z,28.93
2019-02-21T08:11:42.739Z,27.53
2019-02-21T08:16:47.950Z,29.13
2019-02-21T08:21:53.636Z,27.33
2019-02-21T08:26:59.387Z,29.63
2019-02-21T08:32:04.948Z,32.20
2019-02-21T08:37:11.381Z,28.00
2019-02-21T08:42:16.842Z,27.90
2019-02-21T08:47:22.271Z,27.43
2019-02-21T08:52:30.008Z,27.17
2019-02-21T08:57:34.560Z,27.73
2019-02-21T09:02:39.804Z,28.95
2019-02-21T09:07:46.643Z,32.17
2019-02-21T09:12:52.091Z,27.35
2019-02-21T09:17:57.327Z,28.42
2019-02-21T09:23:03.154Z,25.27
2019-02-21T09:28:08.343Z,26.25
2019-02-21T09:33:17.550Z,28.83
2019-02-21T09:38:20.473Z,29.07
2019-02-21T09:43:25.578Z,29.37
2019-02-21T09:48:31.374Z,28.60
2019-02-21T09:53:36.888Z,26.77
2019-02-21T09:58:42.683Z,28.20
2019-02-21T10:03:47.915Z,27.98
2019-02-21T10:08:53.084Z,24.05
2019-02-21T10:13:58.681Z,24.70
2019-02-21T10:19:04.188Z,29.00
2019-02-21T10:24:10.262Z,26.40
2019-02-21T10:29:15.791Z,26.62
2019-02-21T10:34:21.942Z,28.98
2019-02-21T10:39:27.184Z,28.45
2019-02-21T10:44:32.407Z,26.95
2019-02-21T10:49:37.512Z,24.70
2019-02-21T10:54:42.820Z,28.67
2019-02-21T10:59:47.977Z,26.62
2019-02-21T11:04:55.036Z,31.45
2019-02-21T11:10:00.013Z,26.35
2019-02-21T11:15:07.152Z,25.82
2019-02-21T11:20:14.553Z,23.98
2019-02-21T11:25:20.754Z,24.60
2019-02-21T11:30:25.923Z,25.17
2019-02-21T11:35:31.359Z,22.13
2019-02-21T11:40:37.546Z,22.77
2019-02-21T11:45:53.151Z,21.25
2019-02-21T11:50:50.803Z,21.93
2019-02-21T11:55:55.993Z,22.90
2019-02-21T12:01:01.265Z,22.10
2019-02-21T12:06:08.136Z,21.05
2019-02-21T12:11:13.371Z,21.70
2019-02-21T12:16:18.543Z,23.90
2019-02-21T12:21:23.767Z,23.27
2019-02-21T12:26:29.614Z,19.70
2019-02-21T12:31:34.784Z,20.37
2019-02-21T12:36:40.951Z,17.87
2019-02-21T12:41:46.228Z,16.32
2019-02-21T12:46:51.954Z,22.25
2019-02-21T12:51:57.568Z,18.37
2019-02-21T12:57:03.165Z,14.80
2019-02-21T13:02:08.401Z,14.93
2019-02-21T13:07:13.639Z,13.83
2019-02-21T13:12:18.805Z,13.10
2019-02-21T13:17:24.340Z,14.83
2019-02-21T13:22:29.860Z,14.83
2019-02-21T13:27:35.071Z,14.03
2019-02-21T13:32:40.234Z,13.62
2019-02-21T13:37:45.939Z,16.20
2019-02-21T13:42:51.190Z,14.05
2019-02-21T13:47:56.337Z,15.80
2019-02-21T13:53:02.081Z,14.43
2019-02-21T13:58:07.237Z,15.70
2019-02-21T14:03:12.536Z,14.68
2019-02-21T14:08:18.154Z,14.40
2019-02-21T14:13:23.433Z,14.70
2019-02-21T14:18:28.981Z,10.18
2019-02-21T14:23:34.205Z,11.00
2019-02-21T14:28:39.382Z,10.35
2019-02-21T14:33:44.546Z,12.30
2019-02-21T14:38:50.265Z,11.05
2019-02-21T14:43:56.674Z,9.78
2019-02-21T14:49:02.302Z,12.13
2019-02-21T14:54:07.918Z,12.05
2019-02-21T14:59:13.380Z,12.40
2019-02-21T15:04:18.840Z,14.00
2019-02-21T15:09:24.002Z,12.73
2019-02-21T15:14:29.597Z,12.68
2019-02-21T15:19:34.763Z,17.57
2019-02-21T15:24:40.081Z,15.87
2019-02-21T15:29:45.554Z,16.48
2019-02-21T15:34:51.371Z,16.12
2019-02-21T15:39:56.573Z,16.12
2019-02-21T15:45:02.698Z,17.67
2019-02-21T15:50:10.004Z,16.57
2019-02-21T15:55:15.791Z,17.65
2019-02-21T16:00:21.062Z,17.17
2019-02-21T16:05:26.693Z,20.72
2019-02-21T16:10:31.859Z,21.20
2019-02-21T16:15:37.021Z,21.17
2019-02-21T16:20:42.206Z,18.77
2019-02-21T16:25:48.057Z,20.08
2019-02-21T16:30:53.782Z,22.53
2019-02-21T16:35:59.140Z,22.05
2019-02-21T16:41:05.182Z,20.68
2019-02-21T16:46:10.430Z,19.92
2019-02-21T16:51:16.285Z,23.25
2019-02-21T16:56:21.548Z,20.62
2019-02-21T17:01:26.818Z,22.02
2019-02-21T17:06:33.060Z,23.65
2019-02-21T17:11:38.746Z,20.17
2019-02-21T17:16:43.911Z,23.25
2019-02-21T17:21:49.113Z,22.00
2019-02-21T17:26:55.230Z,23.85
2019-02-21T17:32:00.610Z,22.67
2019-02-21T17:37:10.215Z,25.68
2019-02-21T17:42:16.526Z,27.55
2019-02-21T17:47:22.705Z,29.35
2019-02-21T17:52:27.793Z,26.77
2019-02-21T17:57:33.019Z,29.00
2019-02-21T18:02:38.728Z,28.07
2019-02-21T18:07:43.994Z,30.08
2019-02-21T18:12:49.269Z,32.88
2019-02-21T18:17:54.830Z,31.35
2019-02-21T18:23:00.794Z,31.45
2019-02-21T18:28:07.111Z,33.65
2019-02-21T18:33:12.703Z,30.90
2019-02-21T18:38:17.902Z,33.80
2019-02-21T18:43:23.222Z,32.93
2019-02-21T18:48:28.645Z,35.15
2019-02-21T18:53:33.978Z,33.47
2019-02-21T18:58:39.769Z,36.25
2019-02-21T19:03:45.014Z,39.13
2019-02-21T19:08:50.519Z,35.68
2019-02-21T19:13:56.032Z,38.85
2019-02-21T19:19:01.271Z,37.45
2019-02-21T19:24:06.850Z,38.13
2019-02-21T19:29:12.224Z,37.60
2019-02-21T19:34:19.068Z,36.93
2019-02-21T19:39:25.078Z,35.38
2019-02-21T19:44:30.424Z,37.33
2019-02-21T19:49:36.089Z,38.78
2019-02-21T19:54:41.653Z,40.58
2019-02-21T19:59:48.038Z,33.10
2019-02-21T20:04:53.190Z,36.63
2019-02-21T20:09:58.650Z,42.78
2019-02-21T20:15:04.141Z,42.90
2019-02-21T20:20:11.051Z,42.75
2019-02-21T20:25:16.725Z,44.55
2019-02-21T20:30:22.192Z,45.07
2019-02-21T20:35:27.532Z,47.43
2019-02-21T20:40:33.598Z,46.35
2019-02-21T20:45:38.921Z,45.95
2019-02-21T20:50:44.283Z,44.20
2019-02-21T20:55:49.577Z,44.67
2019-02-21T21:00:54.867Z,45.83
2019-02-21T21:06:00.150Z,48.70
2019-02-21T21:11:05.431Z,46.70
2019-02-21T21:16:10.691Z,47.60
2019-02-21T21:21:15.858Z,44.27
2019-02-21T21:26:21.287Z,52.78
2019-02-21T21:31:26.977Z,48.55
2019-02-21T21:36:32.567Z,45.40
2019-02-21T21:41:37.763Z,48.02
2019-02-21T21:46:42.963Z,50.12
2019-02-21T21:51:48.608Z,49.40
2019-02-21T21:56:53.854Z,53.80
2019-02-21T22:01:59.296Z,48.55
2019-02-21T22:07:04.598Z,52.13
2019-02-21T22:12:10.181Z,52.00
2019-02-21T22:17:15.737Z,56.67
2019-02-21T22:22:21.997Z,51.30
2019-02-21T22:27:27.563Z,55.78
2019-02-21T22:32:33.330Z,60.58
2019-02-21T22:37:39.988Z,52.88
2019-02-21T22:42:46.652Z,52.48
2019-02-21T22:47:51.812Z,52.35
2019-02-21T22:52:57.299Z,49.98
2019-02-21T22:58:02.552Z,51.42
2019-02-21T23:03:08.256Z,50.60
2019-02-21T23:08:47.673Z,51.13
2019-02-21T23:13:53.502Z,52.23
2019-02-21T23:18:58.766Z,55.17
2019-02-21T23:24:03.993Z,56.13
2019-02-21T23:29:09.159Z,57.62
2019-02-21T23:34:28.522Z,57.40
2019-02-21T23:39:38.240Z,54.27
2019-02-21T23:44:40.600Z,57.03
2019-02-21T23:49:46.133Z,52.43
2019-02-21T23:54:51.288Z,55.23
2019-02-21T23:59:56.877Z,56.48
